createdAt,value
2022-10-19T00:02:26.874Z,6.65
2022-10-19T00:04:56.048Z,6.97
2022-10-19T00:07:23.779Z,4.90
2022-10-19T00:09:52.110Z,4.65
2022-10-19T00:12:19.884Z,3.08
2022-10-19T00:14:47.646Z,2.85
2022-10-19T00:17:15.460Z,2.35
2022-10-19T00:19:43.297Z,6.75
2022-10-19T00:22:13.997Z,5.65
2022-10-19T00:24:42.539Z,3.97
2022-10-19T00:27:10.462Z,3.88
2022-10-19T00:29:38.880Z,4.38
2022-10-19T00:32:06.727Z,6.97
2022-10-19T00:34:34.492Z,1.65
2022-10-19T00:37:02.251Z,2.60
2022-10-19T00:39:31.358Z,3.88
2022-10-19T00:41:59.118Z,2.80
2022-10-19T00:44:59.353Z,4.55
2022-10-19T00:47:27.410Z,4.18
2022-10-19T00:49:55.713Z,3.05
2022-10-19T00:52:25.684Z,9.90
2022-10-19T00:54:57.362Z,4.82
2022-10-19T00:57:29.515Z,6.20
2022-10-19T00:59:58.206Z,8.55
2022-10-19T01:02:26.062Z,5.28
2022-10-19T01:04:54.774Z,10.43
2022-10-19T01:07:22.810Z,3.28
2022-10-19T01:09:50.698Z,4.25
2022-10-19T01:12:43.885Z,1.30
2022-10-19T01:15:21.860Z,5.18
2022-10-19T01:17:59.801Z,4.90
2022-10-19T01:20:59.249Z,3.92
2022-10-19T01:24:12.933Z,4.45
2022-10-19T01:27:05.489Z,4.90
2022-10-19T01:29:54.585Z,6.47
2022-10-19T01:32:28.849Z,6.97
2022-10-19T01:35:06.526Z,7.45
2022-10-19T01:37:39.727Z,9.07
2022-10-19T01:40:13.449Z,6.65
2022-10-19T01:42:47.672Z,5.22
2022-10-19T01:45:20.580Z,9.52
2022-10-19T01:47:53.705Z,10.32
2022-10-19T01:50:28.342Z,7.00
2022-10-19T01:52:57.517Z,6.22
2022-10-19T01:55:27.206Z,6.10
2022-10-19T01:57:59.199Z,7.35
2022-10-19T02:00:30.467Z,7.55
2022-10-19T02:03:00.298Z,9.40
2022-10-19T02:05:32.723Z,12.52
2022-10-19T02:08:03.330Z,6.10
2022-10-19T02:10:33.800Z,10.82
2022-10-19T02:13:03.938Z,9.88
2022-10-19T02:15:35.829Z,15.43
2022-10-19T02:18:06.977Z,8.00
2022-10-19T02:20:36.396Z,13.07
2022-10-19T02:23:05.088Z,11.73
2022-10-19T02:25:33.045Z,10.65
2022-10-19T02:28:02.283Z,8.85
2022-10-19T02:30:30.133Z,8.85
2022-10-19T02:32:59.236Z,8.68
2022-10-19T02:35:27.656Z,7.57
2022-10-19T02:37:57.884Z,8.77
2022-10-19T02:40:26.594Z,6.95
2022-10-19T02:43:00.111Z,10.98
2022-10-19T02:45:31.305Z,11.60
2022-10-19T02:48:04.056Z,7.95
2022-10-19T02:50:32.159Z,10.55
2022-10-19T02:53:00.607Z,17.92
2022-10-19T02:55:29.413Z,11.00
2022-10-19T02:57:57.379Z,7.82
2022-10-19T03:00:25.173Z,7.75
2022-10-19T03:02:52.953Z,12.32
2022-10-19T03:05:22.046Z,13.48
2022-10-19T03:07:49.821Z,8.15
2022-10-19T03:10:17.646Z,8.85
2022-10-19T03:12:45.401Z,16.30
2022-10-19T03:15:16.310Z,14.88
2022-10-19T03:17:44.149Z,10.70
2022-10-19T03:20:12.633Z,13.23
2022-10-19T03:22:41.766Z,8.93
2022-10-19T03:25:10.252Z,7.82
2022-10-19T03:27:38.037Z,8.18
2022-10-19T03:30:06.460Z,7.50
2022-10-19T03:32:34.246Z,7.72
2022-10-19T03:35:01.992Z,7.65
2022-10-19T03:37:29.749Z,6.72
2022-10-19T03:39:59.103Z,11.73
2022-10-19T03:42:26.855Z,9.98
2022-10-19T03:44:54.624Z,3.90
2022-10-19T03:47:22.396Z,12.18
2022-10-19T03:49:51.259Z,5.63
2022-10-19T03:52:19.975Z,7.68
2022-10-19T03:54:50.677Z,6.53
2022-10-19T03:57:19.794Z,8.32
2022-10-19T03:59:47.986Z,5.15
2022-10-19T04:02:15.728Z,7.05
2022-10-19T04:04:43.489Z,8.43
2022-10-19T04:07:11.238Z,5.22
2022-10-19T04:09:40.065Z,4.13
2022-10-19T04:12:07.802Z,8.55
2022-10-19T04:14:52.383Z,10.15
2022-10-19T04:17:23.913Z,2.67
2022-10-19T04:19:51.678Z,2.22
2022-10-19T04:22:19.414Z,5.43
2022-10-19T04:24:47.271Z,5.65
2022-10-19T04:27:15.083Z,4.32
2022-10-19T04:29:44.220Z,5.30
2022-10-19T04:32:12.011Z,4.07
2022-10-19T04:34:40.185Z,4.10
2022-10-19T04:37:08.061Z,6.47
2022-10-19T04:39:39.349Z,5.57
2022-10-19T04:42:07.086Z,7.90
2022-10-19T04:44:34.935Z,4.35
2022-10-19T04:47:04.058Z,6.60
2022-10-19T04:49:31.824Z,4.47
2022-10-19T04:51:59.724Z,5.07
2022-10-19T04:54:27.478Z,3.78
2022-10-19T04:56:55.289Z,5.53
2022-10-19T04:59:23.034Z,7.82
2022-10-19T05:01:50.814Z,5.93
2022-10-19T05:04:19.935Z,7.20
2022-10-19T05:06:47.673Z,2.83
2022-10-19T05:09:15.461Z,5.97
2022-10-19T05:11:43.221Z,3.70
2022-10-19T05:14:11.148Z,5.93
2022-10-19T05:16:38.922Z,9.45
2022-10-19T05:19:06.874Z,5.68
2022-10-19T05:21:35.931Z,5.75
2022-10-19T05:24:03.886Z,5.40
2022-10-19T05:26:31.645Z,4.10
2022-10-19T05:29:02.522Z,5.68
2022-10-19T05:31:32.119Z,3.90
2022-10-19T05:34:00.509Z,5.75
2022-10-19T05:36:32.240Z,2.75
2022-10-19T05:39:04.779Z,5.55
2022-10-19T05:41:32.662Z,5.45
2022-10-19T05:44:01.995Z,3.90
2022-10-19T05:46:31.213Z,7.15
2022-10-19T05:49:00.064Z,8.65
2022-10-19T05:51:29.019Z,7.30
2022-10-19T05:53:57.772Z,13.05
2022-10-19T05:56:28.937Z,1.75
2022-10-19T05:58:57.598Z,5.93
2022-10-19T06:01:26.232Z,5.68
2022-10-19T06:03:55.336Z,5.80
2022-10-19T06:06:23.923Z,6.63
2022-10-19T06:08:53.001Z,3.00
2022-10-19T06:11:22.714Z,5.10
2022-10-19T06:13:54.630Z,2.70
2022-10-19T06:16:23.014Z,2.83
2022-10-19T06:18:51.375Z,3.58
2022-10-19T06:21:21.151Z,3.03
2022-10-19T06:23:51.476Z,2.33
2022-10-19T06:26:19.864Z,3.50
2022-10-19T06:28:48.118Z,2.17
2022-10-19T06:31:18.216Z,5.53
2022-10-19T06:33:49.241Z,3.20
2022-10-19T06:36:19.756Z,7.03
2022-10-19T06:38:47.868Z,2.92
2022-10-19T06:41:16.296Z,4.85
2022-10-19T06:43:44.422Z,5.90
2022-10-19T06:46:15.545Z,2.30
2022-10-19T06:48:44.680Z,4.68
2022-10-19T06:51:13.579Z,2.53
2022-10-19T06:53:41.320Z,6.65
2022-10-19T06:56:11.041Z,5.72
2022-10-19T06:58:39.283Z,5.47
2022-10-19T07:01:08.443Z,7.80
2022-10-19T07:03:37.108Z,4.75
2022-10-19T07:06:08.150Z,5.30
2022-10-19T07:08:37.045Z,2.80
2022-10-19T07:11:06.820Z,3.17
2022-10-19T07:13:35.461Z,3.00
2022-10-19T07:16:07.131Z,5.32
2022-10-19T07:18:36.364Z,5.88
2022-10-19T07:21:08.050Z,4.63
2022-10-19T07:23:37.599Z,4.95
2022-10-19T07:26:07.398Z,2.88
2022-10-19T07:28:35.995Z,2.83
2022-10-19T07:31:08.757Z,4.72
2022-10-19T07:33:36.986Z,4.97
2022-10-19T07:36:08.155Z,3.05
2022-10-19T07:38:36.415Z,3.33
2022-10-19T07:41:06.736Z,5.60
2022-10-19T07:43:35.399Z,2.53
2022-10-19T07:46:04.861Z,4.22
2022-10-19T07:48:32.926Z,6.38
2022-10-19T07:51:02.730Z,1.85
2022-10-19T07:53:32.029Z,3.80
2022-10-19T07:56:04.647Z,2.15
2022-10-19T07:58:32.751Z,3.67
2022-10-19T08:01:01.754Z,4.15
2022-10-19T08:06:18.992Z,3.55
2022-10-19T08:08:49.563Z,2.63
2022-10-19T08:11:19.832Z,3.22
2022-10-19T08:13:47.918Z,2.63
2022-10-19T08:16:24.374Z,3.17
2022-10-19T08:18:52.854Z,1.27
2022-10-19T08:21:20.609Z,1.30
2022-10-19T08:23:49.884Z,2.55
2022-10-19T08:26:17.838Z,2.65
2022-10-19T08:28:47.133Z,1.85
2022-10-19T08:31:16.802Z,1.75
2022-10-19T08:33:44.906Z,1.45
2022-10-19T08:36:14.242Z,2.30
2022-10-19T08:38:44.644Z,1.60
2022-10-19T08:41:23.750Z,2.63
2022-10-19T08:44:10.164Z,1.90
2022-10-19T08:46:48.394Z,1.77
2022-10-19T08:49:20.890Z,2.67
2022-10-19T08:51:54.562Z,1.17
2022-10-19T08:54:22.541Z,2.45
2022-10-19T08:57:04.105Z,1.38
2022-10-19T08:59:41.422Z,2.13
2022-10-19T09:02:19.142Z,1.88
2022-10-19T09:04:49.708Z,3.22
2022-10-19T09:07:29.810Z,2.85
2022-10-19T09:10:01.226Z,1.20
2022-10-19T09:12:43.651Z,1.73
2022-10-19T09:15:13.745Z,2.28
2022-10-19T09:17:41.525Z,0.38
2022-10-19T09:20:17.948Z,3.95
2022-10-19T09:22:46.402Z,1.60
2022-10-19T09:25:18.397Z,1.85
2022-10-19T09:27:50.219Z,3.97
2022-10-19T09:30:20.932Z,3.25
2022-10-19T09:32:50.846Z,3.65
2022-10-19T09:35:27.639Z,0.52
2022-10-19T09:37:56.634Z,0.73
2022-10-19T09:40:26.748Z,1.02
2022-10-19T09:42:58.437Z,1.23
2022-10-19T09:45:37.281Z,1.73
2022-10-19T09:48:13.285Z,1.70
2022-10-19T09:50:44.484Z,0.68
2022-10-19T09:53:19.931Z,0.75
2022-10-19T09:55:50.769Z,1.15
2022-10-19T09:58:21.273Z,0.45
2022-10-19T10:00:51.642Z,2.35
2022-10-19T10:03:31.142Z,1.45
2022-10-19T10:06:00.579Z,1.10
2022-10-19T10:08:32.520Z,3.10
2022-10-19T10:11:10.564Z,1.50
2022-10-19T10:13:42.512Z,1.05
2022-10-19T10:16:14.818Z,0.75
2022-10-19T10:18:55.896Z,2.05
2022-10-19T10:21:26.257Z,2.30
2022-10-19T10:24:02.825Z,2.28
2022-10-19T10:26:30.700Z,1.05
2022-10-19T10:29:01.436Z,1.05
2022-10-19T10:31:31.182Z,1.70
2022-10-19T10:34:11.017Z,1.30
2022-10-19T10:36:52.746Z,5.15
2022-10-19T10:39:28.777Z,0.43
2022-10-19T10:41:58.322Z,3.90
2022-10-19T10:44:30.782Z,1.00
2022-10-19T10:47:00.969Z,1.65
2022-10-19T10:49:30.822Z,2.47
2022-10-19T10:52:01.333Z,0.82
2022-10-19T10:54:31.383Z,1.55
2022-10-19T10:57:12.158Z,0.77
2022-10-19T10:59:50.227Z,1.02
2022-10-19T11:02:31.199Z,0.75
2022-10-19T11:05:05.351Z,1.02
2022-10-19T11:07:35.907Z,3.28
2022-10-19T11:10:12.366Z,1.58
2022-10-19T11:12:44.875Z,0.93
2022-10-19T11:15:19.964Z,0.85
2022-10-19T11:17:56.548Z,0.70
2022-10-19T11:20:30.528Z,0.50
2022-10-19T11:23:09.080Z,0.82
2022-10-19T11:25:47.078Z,0.93
2022-10-19T11:28:28.594Z,0.47
2022-10-19T11:31:05.123Z,1.13
2022-10-19T11:33:44.830Z,0.52
2022-10-19T11:36:24.707Z,1.75
2022-10-19T11:39:05.515Z,0.35
2022-10-19T11:41:39.320Z,0.85
2022-10-19T11:44:20.389Z,1.55
2022-10-19T11:47:04.461Z,0.50
2022-10-19T11:49:51.338Z,0.93
2022-10-19T11:52:27.967Z,1.42
2022-10-19T11:55:06.162Z,2.05
2022-10-19T11:57:42.079Z,0.70
2022-10-19T12:00:15.221Z,0.68
2022-10-19T12:03:22.596Z,0.30
2022-10-19T12:06:09.069Z,0.68
2022-10-19T12:08:55.293Z,0.77
2022-10-19T12:11:32.034Z,0.75
2022-10-19T12:14:05.306Z,2.55
2022-10-19T12:16:38.779Z,0.75
2022-10-19T12:19:15.702Z,0.93
2022-10-19T12:21:44.303Z,0.75
2022-10-19T12:24:16.553Z,0.40
2022-10-19T12:26:45.733Z,0.82
2022-10-19T12:29:17.148Z,0.35
2022-10-19T12:31:46.030Z,0.98
2022-10-19T12:34:27.746Z,1.55
2022-10-19T12:37:01.512Z,0.30
2022-10-19T12:39:36.342Z,0.35
2022-10-19T12:42:11.789Z,2.42
2022-10-19T12:45:00.259Z,0.75
2022-10-19T12:47:28.117Z,0.93
2022-10-19T12:49:57.794Z,0.57
2022-10-19T12:52:41.625Z,0.50
2022-10-19T12:55:30.411Z,1.75
2022-10-19T12:58:01.910Z,1.30
2022-10-19T13:00:32.834Z,0.98
2022-10-19T13:03:04.535Z,0.95
2022-10-19T13:05:35.042Z,0.60
2022-10-19T13:08:08.006Z,0.60
2022-10-19T13:10:38.819Z,0.45
2022-10-19T13:13:06.642Z,0.50
2022-10-19T13:15:58.970Z,0.75
2022-10-19T13:19:07.273Z,1.30
2022-10-19T13:21:52.047Z,0.90
2022-10-19T13:24:35.681Z,0.73
2022-10-19T13:27:28.313Z,1.65
2022-10-19T13:29:56.696Z,2.10
2022-10-19T13:32:41.410Z,0.40
2022-10-19T13:35:26.966Z,0.82
2022-10-19T13:38:26.850Z,0.75
2022-10-19T13:41:10.882Z,0.47
2022-10-19T13:43:46.059Z,1.35
2022-10-19T13:46:17.570Z,1.30
2022-10-19T13:49:18.319Z,0.38
2022-10-19T13:51:58.747Z,0.40
2022-10-19T13:54:46.755Z,1.17
2022-10-19T13:57:31.884Z,0.98
2022-10-19T14:00:20.245Z,1.23
2022-10-19T14:03:05.470Z,0.30
2022-10-19T14:05:56.376Z,1.48
2022-10-19T14:09:01.115Z,1.35
2022-10-19T14:11:34.802Z,1.83
2022-10-19T14:14:14.616Z,1.65
2022-10-19T14:16:52.214Z,2.15
2022-10-19T14:19:26.852Z,1.17
2022-10-19T14:21:58.756Z,1.45
2022-10-19T14:24:30.881Z,0.80
2022-10-19T14:27:02.952Z,2.30
2022-10-19T14:29:32.293Z,1.00
2022-10-19T14:32:00.772Z,1.15
2022-10-19T14:34:28.524Z,0.75
2022-10-19T14:36:56.444Z,1.98
2022-10-19T14:39:31.468Z,1.40
2022-10-19T14:42:06.500Z,2.03
2022-10-19T14:44:39.562Z,2.13
2022-10-19T14:47:20.121Z,0.63
2022-10-19T14:49:48.140Z,1.50
2022-10-19T14:52:21.733Z,1.02
2022-10-19T14:54:52.701Z,0.60
2022-10-19T14:57:28.066Z,0.95
2022-10-19T14:59:59.363Z,0.77
2022-10-19T15:02:31.806Z,0.95
2022-10-19T15:05:02.679Z,1.55
2022-10-19T15:07:36.751Z,1.58
2022-10-19T15:10:08.579Z,2.20
2022-10-19T15:12:40.788Z,1.70
2022-10-19T15:15:10.850Z,1.92
2022-10-19T15:17:56.319Z,1.45
2022-10-19T15:20:27.785Z,1.17
2022-10-19T15:22:56.503Z,1.88
2022-10-19T15:25:32.650Z,2.22
2022-10-19T15:28:21.303Z,4.47
2022-10-19T15:30:59.981Z,1.98
2022-10-19T15:33:28.279Z,1.30
2022-10-19T15:36:07.413Z,1.08
2022-10-19T15:38:36.541Z,2.40
2022-10-19T15:41:05.526Z,0.82
2022-10-19T15:43:39.798Z,3.13
2022-10-19T15:46:20.874Z,1.83
2022-10-19T15:48:52.505Z,3.35
2022-10-19T15:51:42.702Z,2.83
2022-10-19T15:54:10.668Z,5.75
2022-10-19T15:56:40.248Z,3.05
2022-10-19T15:59:13.842Z,2.88
2022-10-19T16:01:42.447Z,1.85
2022-10-19T16:04:10.341Z,2.05
2022-10-19T16:06:40.884Z,1.75
2022-10-19T16:09:09.359Z,3.08
2022-10-19T16:11:37.123Z,2.78
2022-10-19T16:14:05.033Z,2.50
2022-10-19T16:16:35.839Z,4.70
2022-10-19T16:19:04.163Z,2.30
2022-10-19T16:21:33.738Z,3.78
2022-10-19T16:24:01.864Z,24.55
2022-10-19T16:26:31.896Z,11.75
2022-10-19T16:29:00.281Z,5.50
2022-10-19T16:31:28.341Z,3.20
2022-10-19T16:33:57.388Z,4.20
2022-10-19T16:36:25.136Z,3.15
2022-10-19T16:38:53.014Z,2.60
2022-10-19T16:41:20.722Z,2.65
2022-10-19T16:43:55.253Z,2.63
2022-10-19T16:46:23.607Z,1.75
2022-10-19T16:48:51.480Z,2.95
2022-10-19T16:51:25.911Z,2.38
2022-10-19T16:53:56.961Z,3.35
2022-10-19T16:56:27.806Z,2.33
2022-10-19T16:58:57.993Z,3.90
2022-10-19T17:01:25.825Z,2.13
2022-10-19T17:03:55.638Z,3.67
2022-10-19T17:06:25.554Z,2.53
2022-10-19T17:11:42.638Z,2.63
2022-10-19T17:14:13.534Z,1.80
2022-10-19T17:16:41.765Z,1.88
2022-10-19T17:19:11.541Z,2.08
2022-10-19T17:21:42.220Z,1.60
2022-10-19T17:24:21.143Z,1.73
2022-10-19T17:26:51.134Z,1.48
2022-10-19T17:29:20.594Z,1.98
2022-10-19T17:31:48.951Z,1.30
2022-10-19T17:34:17.459Z,2.00
2022-10-19T17:39:39.530Z,2.38
2022-10-19T17:42:07.263Z,4.53
2022-10-19T17:47:38.412Z,9.80
2022-10-19T17:50:31.263Z,7.53
2022-10-19T17:53:00.907Z,8.18
2022-10-19T17:55:28.892Z,5.43
2022-10-19T17:57:56.672Z,6.80
2022-10-19T18:00:26.923Z,4.47
2022-10-19T18:02:55.683Z,4.10
2022-10-19T18:05:23.503Z,3.35
2022-10-19T18:07:53.907Z,4.95
2022-10-19T18:10:23.005Z,2.85
2022-10-19T18:12:50.738Z,2.47
2022-10-19T18:15:18.681Z,1.92
2022-10-19T18:17:46.399Z,1.38
2022-10-19T18:20:14.686Z,2.65
2022-10-19T18:25:21.788Z,2.05
2022-10-19T18:27:55.475Z,2.03
2022-10-19T18:30:23.272Z,1.70
2022-10-19T18:32:52.455Z,1.23
2022-10-19T18:35:20.495Z,2.15
2022-10-19T18:37:48.287Z,1.27
2022-10-19T18:40:16.031Z,1.90
2022-10-19T18:42:44.945Z,1.15
2022-10-19T18:45:39.695Z,0.90
2022-10-19T18:48:07.853Z,2.08
2022-10-19T18:50:35.603Z,3.42
2022-10-19T18:53:03.697Z,4.03
2022-10-19T18:55:31.683Z,3.20
2022-10-19T18:57:59.513Z,3.40
2022-10-19T19:00:27.392Z,3.95
2022-10-19T19:02:56.993Z,5.38
2022-10-19T19:05:26.964Z,7.40
2022-10-19T19:08:01.979Z,5.05
2022-10-19T19:10:29.938Z,3.28
2022-10-19T19:12:57.678Z,5.55
2022-10-19T19:15:25.575Z,4.85
2022-10-19T19:17:56.189Z,3.95
2022-10-19T19:20:24.442Z,2.80
2022-10-19T19:22:52.968Z,3.08
2022-10-19T19:25:20.785Z,3.45
2022-10-19T19:27:48.494Z,3.25
2022-10-19T19:30:16.320Z,2.03
2022-10-19T19:33:11.005Z,2.45
2022-10-19T19:35:43.981Z,2.15
2022-10-19T19:38:11.920Z,1.90
2022-10-19T19:40:41.148Z,2.47
2022-10-19T19:43:10.285Z,5.75
2022-10-19T19:45:38.600Z,1.67
2022-10-19T19:48:08.421Z,3.00
2022-10-19T19:50:39.053Z,1.80
2022-10-19T19:53:06.894Z,2.80
2022-10-19T19:55:38.872Z,2.85
2022-10-19T19:58:07.007Z,1.70
2022-10-19T20:00:34.785Z,2.00
2022-10-19T20:03:02.633Z,2.65
2022-10-19T20:05:30.402Z,2.47
2022-10-19T20:07:59.730Z,4.13
2022-10-19T20:10:27.461Z,1.92
2022-10-19T20:12:55.988Z,1.50
2022-10-19T20:15:23.821Z,3.10
2022-10-19T20:17:51.560Z,5.20
2022-10-19T20:20:19.745Z,4.57
2022-10-19T20:22:48.455Z,2.15
2022-10-19T20:25:17.703Z,1.30
2022-10-19T20:27:45.519Z,5.55
2022-10-19T20:30:13.363Z,1.55
2022-10-19T20:32:41.245Z,2.88
2022-10-19T20:35:09.641Z,2.13
2022-10-19T20:37:37.352Z,4.28
2022-10-19T20:40:08.798Z,2.30
2022-10-19T20:42:38.425Z,2.22
2022-10-19T20:45:08.022Z,1.38
2022-10-19T20:47:35.782Z,2.28
2022-10-19T20:52:37.171Z,4.03
2022-10-19T20:55:05.729Z,3.83
2022-10-19T20:57:33.494Z,4.85
2022-10-19T21:00:02.546Z,2.95
2022-10-19T21:02:31.020Z,2.95
2022-10-19T21:04:59.029Z,2.13
2022-10-19T21:07:26.761Z,2.65
2022-10-19T21:09:55.367Z,1.38
2022-10-19T21:12:23.204Z,3.63
2022-10-19T21:14:50.963Z,2.05
2022-10-19T21:17:20.111Z,3.15
2022-10-19T21:19:49.469Z,2.05
2022-10-19T21:22:17.640Z,2.40
2022-10-19T21:24:45.485Z,2.97
2022-10-19T21:27:15.029Z,3.08
2022-10-19T21:29:43.781Z,2.08
2022-10-19T21:32:11.585Z,2.47
2022-10-19T21:34:40.641Z,2.60
2022-10-19T21:37:08.369Z,2.65
2022-10-19T21:39:36.407Z,2.03
2022-10-19T21:42:07.759Z,2.72
2022-10-19T21:44:36.130Z,2.22
2022-10-19T21:47:05.076Z,2.08
2022-10-19T21:49:32.815Z,2.65
2022-10-19T21:52:01.891Z,5.97
2022-10-19T21:54:30.087Z,1.70
2022-10-19T21:57:00.234Z,4.50
2022-10-19T21:59:28.130Z,2.47
2022-10-19T22:01:56.568Z,1.75
2022-10-19T22:04:24.942Z,2.47
2022-10-19T22:06:52.737Z,3.20
2022-10-19T22:09:22.990Z,1.40
2022-10-19T22:11:50.819Z,0.95
2022-10-19T22:14:19.265Z,1.35
2022-10-19T22:16:47.301Z,1.73
2022-10-19T22:19:15.071Z,3.72
2022-10-19T22:21:43.097Z,5.20
2022-10-19T22:24:14.565Z,2.22
2022-10-19T22:26:45.765Z,3.97
2022-10-19T22:29:14.883Z,1.77
2022-10-19T22:31:42.846Z,2.80
2022-10-19T22:34:13.515Z,3.20
2022-10-19T22:36:41.641Z,2.10
2022-10-19T22:39:09.815Z,3.40
2022-10-19T22:41:37.663Z,2.63
2022-10-19T22:44:07.239Z,1.00
2022-10-19T22:46:35.114Z,1.40
2022-10-19T22:49:02.947Z,1.75
2022-10-19T22:51:30.958Z,3.33
2022-10-19T22:53:58.828Z,0.68
2022-10-19T22:56:26.922Z,1.77
2022-10-19T22:58:58.698Z,0.90
2022-10-19T23:01:28.851Z,1.10
2022-10-19T23:03:57.091Z,1.08
2022-10-19T23:06:25.058Z,0.75
2022-10-19T23:08:54.396Z,0.80
2022-10-19T23:11:22.319Z,1.40
2022-10-19T23:13:50.183Z,1.70
2022-10-19T23:16:18.139Z,2.40
2022-10-19T23:18:47.317Z,1.63
2022-10-19T23:21:18.881Z,0.93
2022-10-19T23:23:46.896Z,2.67
2022-10-19T23:26:16.881Z,1.40
2022-10-19T23:28:47.088Z,3.05
2022-10-19T23:31:17.292Z,2.70
2022-10-19T23:33:47.723Z,2.33
2022-10-19T23:36:17.497Z,1.17
2022-10-19T23:38:47.991Z,1.90
2022-10-19T23:41:17.123Z,2.50
2022-10-19T23:43:44.894Z,1.90
2022-10-19T23:46:13.484Z,5.05
2022-10-19T23:48:42.666Z,3.38
2022-10-19T23:51:13.481Z,2.53
2022-10-19T23:53:43.120Z,2.25
2022-10-19T23:56:13.819Z,6.40
2022-10-19T23:58:41.998Z,3.42
